Time;durP1;ratioP1;P1;durP2;ratioP2;P2;SDS_P1;SDS_P2;PMS_P1;PMS_P2;Temp;Humidity;BMP_temperature;BMP_pressure;BME280_temperature;BME280_humidity;BME280_pressure;Samples;Min_cycle;Max_cycle;Signal;HPM_P1;HPM_P2
2022/07/01 12:56:39;;;;;;;;;;;;;;;;;;5113463;27;2333;-73
2022/07/01 13:00:02;;;;;;;;;;;;;;;;;;5133309;27;2316;-72
2022/07/01 13:02:58;;;;;;;;;;;;;;;;;;5070561;27;2110;-80
2022/07/01 13:05:23;;;;;;;;;;;;;;;;;;5061656;28;2187;-76
2022/07/01 13:15:34;;;;;;;;;;;;;;;;;;5090502;27;2142;-77
2022/07/01 13:18:00;;;;;;;;;;;;;;;;;;5086637;28;2370;-75
2022/07/01 13:20:58;;;;;;;;;;;;;;;;;;5085828;28;1723;-77
2022/07/01 13:23:23;;;;;;;;;;;;;;;;;;5071341;28;2968;-75
2022/07/01 13:25:48;;;;;;;;;;;;;;;;;;5065663;28;1191;-76
2022/07/01 13:28:13;;;;;;;;;;;;;;;;;;5078618;28;2826;-76
2022/07/01 13:30:39;;;;;;;;;;;;;;;;;;5066894;28;2012;-75
2022/07/01 13:33:04;;;;;;;;;;;;;;;;;;5081894;28;2182;-76
2022/07/01 13:35:29;;;;;;;;;;;;;;;;;;5085180;28;2920;-76
2022/07/01 13:37:54;;;;;;;;;;;;;;;;;;5074227;28;2907;-76
2022/07/01 13:40:21;;;;;;;;;;;;;;;;;;5066644;28;2707;-76
2022/07/01 13:42:46;;;;;;;;;;;;;;;;;;5083906;28;2645;-76
2022/07/01 13:45:13;;;;;;;;;;;;;;;;;;5086406;28;2641;-76
2022/07/01 13:47:38;;;;;;;;;;;;;;;;;;5073168;28;2807;-76
2022/07/01 13:50:03;;;;;;;;;;;;;;;;;;5075055;28;1967;-76
2022/07/01 13:52:29;;;;;;;;;;;;;;;;;;5062935;28;1500;-76
2022/07/01 13:54:55;;;;;;;;;;;;;;;;;;5066495;28;2767;-76
2022/07/01 13:57:20;;;;;;;;;;;;;;;;;;5065717;28;2931;-76
2022/07/01 13:59:45;;;;;;;;;;;;;;;;;;5065273;28;2212;-76
2022/07/01 14:02:11;;;;;;;;;;;;;;;;;;5066228;28;1154;-76
2022/07/01 14:04:36;;;;;;;;;;;;;;;;;;5065068;28;2903;-76
2022/07/01 14:07:02;;;;;;;;;;;;;;;;;;5071157;28;2612;-76
2022/07/01 14:09:28;;;;;;;;;;;;;;;;;;5068884;28;1950;-76
2022/07/01 14:11:53;;;;;;;;;;;;;;;;;;5047212;28;2055;-76
2022/07/01 14:14:18;;;;;;;;;;;;;;;;;;5066714;28;2969;-76
2022/07/01 14:16:43;;;;;;;;;;;;;;;;;;5051094;28;2035;-76
2022/07/01 14:19:09;;;;;;;;;;;;;;;;;;5052454;28;2743;-76
2022/07/01 14:21:34;;;;;;;;;;;;;;;;;;5064272;28;2065;-76
2022/07/01 14:23:59;;;;;;;;;;;;;;;;;;5059158;28;2007;-76
2022/07/01 14:26:24;;;;;;;;;;;;;;;;;;5056786;28;2064;-76
2022/07/01 14:28:49;;;;;;;;;;;;;;;;;;5058224;28;2189;-76
2022/07/01 14:31:14;;;;;;;;;;;;;;;;;;5058279;28;2776;-76
2022/07/01 14:33:40;;;;;;;;;;;;;;;;;;5038666;28;2289;-76
2022/07/01 14:36:05;;;;;;;;;;;;;;;;;;5050065;28;2629;-75
2022/07/01 14:38:30;;;;;;;;;;;;;;;;;;5045409;28;2674;-75
2022/07/01 14:40:55;;;;;;;;;;;;;;;;;;5054528;28;2955;-76
2022/07/01 14:43:20;;;;;;;;;;;;;;;;;;5056160;28;2836;-76
2022/07/01 14:45:46;;;;;;;;;;;;;;;;;;5052224;28;2687;-76
2022/07/01 14:48:12;;;;;;;;;;;;;;;;;;5049455;28;3031;-76
2022/07/01 14:50:37;;;;;;;;;;;;;;;;;;5050337;28;1994;-76
2022/07/01 14:53:03;;;;;;;;;;;;;;;;;;5059455;28;2813;-76
2022/07/01 14:55:29;;;;;;;;;;;;;;;;;;5054226;28;2220;-76
2022/07/01 14:57:55;;;;;;;;;;;;;;;;;;5027115;28;1253;-76
2022/07/01 15:00:21;;;;;;;;;;;;;;;;;;5055887;28;2130;-76
2022/07/01 15:02:46;;;;;;;;;;;;;;;;;;5047775;28;1119;-76
2022/07/01 15:05:11;;;;;;;;;;;;;;;;;;5050458;28;1991;-77
2022/07/01 15:07:37;;;;;;;;;;;;;;;;;;5043277;28;1186;-77
2022/07/01 15:10:02;;;;;;;;;;;;;;;;;;5046316;28;3018;-76
2022/07/01 15:12:28;;;;;;;;;;;;;;;;;;5046107;28;1237;-77
2022/07/01 15:14:53;;;;;;;;;;;;;;;;;;5036030;28;2310;-77
2022/07/01 15:17:18;;;;;;;;;;;;;;;;;;5047414;28;1225;-77
2022/07/01 15:19:43;;;;;;;;;;;;;;;;;;5050887;28;2803;-77
2022/07/01 15:22:09;;;;;;;;;;;;;;;;;;5046476;28;1790;-76
2022/07/01 15:24:35;;;;;;;;;;;;;;;;;;5053738;28;2535;-77
2022/07/01 15:27:00;;;;;;;;;;;;;;;;;;5055081;28;2327;-76
2022/07/01 15:29:26;;;;;;;;;;;;;;;;;;5050442;28;2888;-76
2022/07/01 15:31:51;;;;;;;;;;;;;;;;;;5047251;28;1568;-76
2022/07/01 15:34:16;;;;;;;;;;;;;;;;;;5039578;28;2796;-77
2022/07/01 15:36:42;;;;;;;;;;;;;;;;;;5047382;28;2205;-76
2022/07/01 15:39:07;;;;;;;;;;;;;;;;;;5045046;28;3200;-76
2022/07/01 15:41:33;;;;;;;;;;;;;;;;;;5051138;28;3308;-76
2022/07/01 15:43:59;;;;;;;;;;;;;;;;;;5032595;28;2895;-77
2022/07/01 15:46:24;;;;;;;;;;;;;;;;;;5044369;28;2638;-77
2022/07/01 15:48:49;;;;;;;;;;;;;;;;;;5052335;28;2653;-77
2022/07/01 15:51:14;;;;;;;;;;;;;;;;;;5050915;28;2864;-77
2022/07/01 15:53:40;;;;;;;;;;;;;;;;;;5032854;28;2855;-77
2022/07/01 15:56:05;;;;;;;;;;;;;;;;;;5052738;28;2577;-77
2022/07/01 15:58:31;;;;;;;;;;;;;;;;;;5046503;28;2719;-77
2022/07/01 16:00:57;;;;;;;;;;;;;;;;;;5042939;28;2847;-77
2022/07/01 16:03:22;;;;;;;;;;;;;;;;;;5036507;28;2703;-77
2022/07/01 16:05:51;;;;;;;;;;;;;;;;;;5051038;28;2589;-77
2022/07/01 16:08:23;;;;;;;;;;;;;;;;;;5059396;28;3164;-77
2022/07/01 16:10:53;;;;;;;;;;;;;;;;;;5038543;28;3075;-77
2022/07/01 16:13:18;;;;;;;;;;;;;;;;;;5059753;28;2378;-77
2022/07/01 16:15:47;;;;;;;;;;;;;;;;;;5042418;28;2374;-77
2022/07/01 16:18:13;;;;;;;;;;;;;;;;;;5040836;28;2543;-77
2022/07/01 16:20:40;;;;;;;;;;;;;;;;;;5043692;28;5223;-77
2022/07/01 16:23:05;;;;;;;;;;;;;;;;;;5047469;28;1622;-77
2022/07/01 16:25:32;;;;;;;;;;;;;;;;;;5037256;28;2209;-77
2022/07/01 16:27:57;;;;;;;;;;;;;;;;;;5036984;28;1277;-77
2022/07/01 16:30:27;;;;;;;;;;;;;;;;;;5051563;28;2930;-77
2022/07/01 16:32:52;;;;;;;;;;;;;;;;;;5053351;28;2506;-77
2022/07/01 16:35:17;;;;;;;;;;;;;;;;;;5040878;28;2489;-77
2022/07/01 16:37:47;;;;;;;;;;;;;;;;;;5056345;28;2728;-77
2022/07/01 16:40:12;;;;;;;;;;;;;;;;;;5061190;28;2595;-77
2022/07/01 16:42:41;;;;;;;;;;;;;;;;;;5053205;28;2241;-77
2022/07/01 16:45:07;;;;;;;;;;;;;;;;;;5055722;28;2280;-77
2022/07/01 16:47:34;;;;;;;;;;;;;;;;;;5057846;28;2501;-77
2022/07/01 16:50:02;;;;;;;;;;;;;;;;;;5052771;28;2696;-77
2022/07/01 16:52:36;;;;;;;;;;;;;;;;;;5049419;28;2754;-77
2022/07/01 16:55:04;;;;;;;;;;;;;;;;;;5056020;28;2470;-77
2022/07/01 16:57:29;;;;;;;;;;;;;;;;;;5044095;28;2340;-77
2022/07/01 16:59:55;;;;;;;;;;;;;;;;;;5051831;28;2529;-76
2022/07/01 17:02:20;;;;;;;;;;;;;;;;;;5045263;28;2948;-77
2022/07/01 17:04:48;;;;;;;;;;;;;;;;;;5051590;28;2546;-77
2022/07/01 17:07:13;;;;;;;;;;;;;;;;;;5047842;28;2896;-77
2022/07/01 17:09:41;;;;;;;;;;;;;;;;;;5049904;28;2781;-77
2022/07/01 17:12:07;;;;;;;;;;;;;;;;;;5046172;28;2467;-77
2022/07/01 17:14:34;;;;;;;;;;;;;;;;;;5045867;28;2191;-77
2022/07/01 17:17:00;;;;;;;;;;;;;;;;;;5045309;28;2238;-76
2022/07/01 17:19:25;;;;;;;;;;;;;;;;;;5058384;28;2673;-76
2022/07/01 17:21:55;;;;;;;;;;;;;;;;;;5046878;28;1004;-76
2022/07/01 17:24:21;;;;;;;;;;;;;;;;;;5041325;28;2802;-77
2022/07/01 17:27:02;;;;;;;;;;;;;;;;;;5045395;28;2860;-76
2022/07/01 17:29:33;;;;;;;;;;;;;;;;;;5038938;28;2438;-76
2022/07/01 17:32:01;;;;;;;;;;;;;;;;;;5048905;28;1221;-76
2022/07/01 17:34:28;;;;;;;;;;;;;;;;;;5042482;28;2606;-76
2022/07/01 17:36:53;;;;;;;;;;;;;;;;;;5033918;28;1462;-77
2022/07/01 17:39:18;;;;;;;;;;;;;;;;;;5036708;28;2928;-76
2022/07/01 17:41:50;;;;;;;;;;;;;;;;;;5050079;28;2314;-76
2022/07/01 17:44:15;;;;;;;;;;;;;;;;;;5043577;28;1348;-77
2022/07/01 17:46:46;;;;;;;;;;;;;;;;;;5033523;28;2871;-77
2022/07/01 17:49:12;;;;;;;;;;;;;;;;;;5042731;28;1094;-77
2022/07/01 17:51:38;;;;;;;;;;;;;;;;;;5039200;28;2638;-76
2022/07/01 17:54:03;;;;;;;;;;;;;;;;;;5038959;28;1281;-77
2022/07/01 17:56:28;;;;;;;;;;;;;;;;;;5046666;28;2492;-77
2022/07/01 17:58:57;;;;;;;;;;;;;;;;;;5039593;28;2805;-76
2022/07/01 18:01:22;;;;;;;;;;;;;;;;;;5042764;28;2765;-76
2022/07/01 18:03:48;;;;;;;;;;;;;;;;;;5030019;28;1274;-76
2022/07/01 18:06:14;;;;;;;;;;;;;;;;;;5037269;28;3150;-76
2022/07/01 18:08:40;;;;;;;;;;;;;;;;;;5038291;28;2223;-76
2022/07/01 18:11:17;;;;;;;;;;;;;;;;;;5045106;28;2930;-77
2022/07/01 18:13:57;;;;;;;;;;;;;;;;;;5033735;28;1968;-76
2022/07/01 18:16:41;;;;;;;;;;;;;;;;;;5044739;28;2985;-76
2022/07/01 18:19:25;;;;;;;;;;;;;;;;;;5043434;28;2239;-77
2022/07/01 18:21:52;;;;;;;;;;;;;;;;;;5040389;28;2707;-77
2022/07/01 18:24:19;;;;;;;;;;;;;;;;;;5042654;28;1386;-77
2022/07/01 18:26:49;;;;;;;;;;;;;;;;;;5047861;28;2157;-76
2022/07/01 18:29:15;;;;;;;;;;;;;;;;;;5043307;28;1298;-76
2022/07/01 18:31:48;;;;;;;;;;;;;;;;;;5026809;28;2979;-76
2022/07/01 18:34:16;;;;;;;;;;;;;;;;;;5047435;28;2569;-76
2022/07/01 18:36:48;;;;;;;;;;;;;;;;;;5042838;28;2023;-76
2022/07/01 18:39:14;;;;;;;;;;;;;;;;;;5051807;28;2383;-77
2022/07/01 18:41:39;;;;;;;;;;;;;;;;;;5048140;28;1183;-77
2022/07/01 18:44:05;;;;;;;;;;;;;;;;;;5050260;28;2921;-77
2022/07/01 18:46:30;;;;;;;;;;;;;;;;;;5031260;28;1995;-77
2022/07/01 18:48:55;;;;;;;;;;;;;;;;;;5052239;28;2151;-76
2022/07/01 18:51:20;;;;;;;;;;;;;;;;;;5040496;28;2575;-76
2022/07/01 18:53:45;;;;;;;;;;;;;;;;;;5045744;28;2917;-77
2022/07/01 18:56:10;;;;;;;;;;;;;;;;;;5043907;28;2184;-77
2022/07/01 18:58:35;;;;;;;;;;;;;;;;;;5040853;28;2807;-77
2022/07/01 19:01:01;;;;;;;;;;;;;;;;;;5042761;28;2285;-77
2022/07/01 19:03:26;;;;;;;;;;;;;;;;;;5043134;28;2323;-76
2022/07/01 19:05:51;;;;;;;;;;;;;;;;;;5046456;28;2790;-76
2022/07/01 19:08:16;;;;;;;;;;;;;;;;;;5040341;28;2901;-76
2022/07/01 19:10:42;;;;;;;;;;;;;;;;;;5049661;28;2259;-76
2022/07/01 19:13:07;;;;;;;;;;;;;;;;;;5046341;28;2271;-76
2022/07/01 19:15:32;;;;;;;;;;;;;;;;;;5041137;28;2215;-76
2022/07/01 19:18:01;;;;;;;;;;;;;;;;;;5047147;28;2144;-76
2022/07/01 19:20:26;;;;;;;;;;;;;;;;;;5040079;28;2774;-77
2022/07/01 19:22:51;;;;;;;;;;;;;;;;;;5042687;28;2184;-76
2022/07/01 19:25:16;;;;;;;;;;;;;;;;;;5051708;28;2965;-76
2022/07/01 19:27:42;;;;;;;;;;;;;;;;;;5043465;28;2687;-76
2022/07/01 19:30:07;;;;;;;;;;;;;;;;;;5052307;28;2939;-76
2022/07/01 19:32:32;;;;;;;;;;;;;;;;;;5041857;28;1916;-76
2022/07/01 19:34:57;;;;;;;;;;;;;;;;;;5044849;28;2682;-76
2022/07/01 19:37:22;;;;;;;;;;;;;;;;;;5038804;28;1696;-76
2022/07/01 19:39:48;;;;;;;;;;;;;;;;;;5047168;28;2220;-76
2022/07/01 19:42:13;;;;;;;;;;;;;;;;;;5040469;28;2346;-76
2022/07/01 19:44:38;;;;;;;;;;;;;;;;;;5043968;28;2780;-76
2022/07/01 19:47:04;;;;;;;;;;;;;;;;;;5044760;28;1965;-76
2022/07/01 19:49:29;;;;;;;;;;;;;;;;;;5039254;28;2605;-76
2022/07/01 19:51:54;;;;;;;;;;;;;;;;;;5044908;28;2054;-76
2022/07/01 19:54:26;;;;;;;;;;;;;;;;;;5037673;28;2302;-76
2022/07/01 19:56:51;;;;;;;;;;;;;;;;;;5040089;28;2419;-76
2022/07/01 19:59:17;;;;;;;;;;;;;;;;;;5037933;28;2845;-76
2022/07/01 20:01:42;;;;;;;;;;;;;;;;;;5047279;28;2563;-76
2022/07/01 20:04:07;;;;;;;;;;;;;;;;;;5045639;28;2764;-75
2022/07/01 20:06:32;;;;;;;;;;;;;;;;;;5042065;28;2798;-76
2022/07/01 20:08:58;;;;;;;;;;;;;;;;;;5022028;28;1845;-76
2022/07/01 20:11:23;;;;;;;;;;;;;;;;;;5036259;28;2840;-76
2022/07/01 20:13:48;;;;;;;;;;;;;;;;;;5045185;28;3049;-76
2022/07/01 20:16:14;;;;;;;;;;;;;;;;;;5041924;28;1880;-76
2022/07/01 20:18:39;;;;;;;;;;;;;;;;;;5035917;28;2346;-76
2022/07/01 20:21:04;;;;;;;;;;;;;;;;;;5031654;28;1973;-76
2022/07/01 20:23:29;;;;;;;;;;;;;;;;;;5042392;28;2019;-76
2022/07/01 20:25:54;;;;;;;;;;;;;;;;;;5044121;28;2373;-76
2022/07/01 20:28:20;;;;;;;;;;;;;;;;;;5027591;28;2216;-76
2022/07/01 20:30:45;;;;;;;;;;;;;;;;;;5042804;28;2053;-76
2022/07/01 20:33:10;;;;;;;;;;;;;;;;;;5043173;28;2826;-76
2022/07/01 20:35:35;;;;;;;;;;;;;;;;;;5044385;28;2726;-76
2022/07/01 20:38:00;;;;;;;;;;;;;;;;;;5038569;28;2763;-76
2022/07/01 20:40:26;;;;;;;;;;;;;;;;;;5041435;28;2246;-77
2022/07/01 20:42:51;;;;;;;;;;;;;;;;;;5041997;28;2855;-76
2022/07/01 20:45:16;;;;;;;;;;;;;;;;;;5041929;28;1832;-76
2022/07/01 20:47:41;;;;;;;;;;;;;;;;;;5041543;28;2730;-76
2022/07/01 20:50:07;;;;;;;;;;;;;;;;;;5041378;28;2581;-77
2022/07/01 20:52:33;;;;;;;;;;;;;;;;;;5043094;28;2438;-77
2022/07/01 20:54:58;;;;;;;;;;;;;;;;;;5042967;28;3310;-75
2022/07/01 20:57:23;;;;;;;;;;;;;;;;;;5047152;28;1998;-75
2022/07/01 20:59:49;;;;;;;;;;;;;;;;;;5045277;28;2238;-75
2022/07/01 21:02:14;;;;;;;;;;;;;;;;;;5040648;28;3025;-76
2022/07/01 21:04:39;;;;;;;;;;;;;;;;;;5028616;28;2755;-75
2022/07/01 21:07:04;;;;;;;;;;;;;;;;;;5043521;28;2827;-75
2022/07/01 21:09:29;;;;;;;;;;;;;;;;;;5042113;28;2593;-76
2022/07/01 21:11:54;;;;;;;;;;;;;;;;;;5042515;28;1914;-76
2022/07/01 21:14:20;;;;;;;;;;;;;;;;;;5028241;28;2690;-76
2022/07/01 21:16:45;;;;;;;;;;;;;;;;;;5044529;28;2782;-75
2022/07/01 21:19:10;;;;;;;;;;;;;;;;;;5045030;28;2764;-75
2022/07/01 21:21:35;;;;;;;;;;;;;;;;;;5028229;28;2440;-75
2022/07/01 21:24:01;;;;;;;;;;;;;;;;;;5043733;28;2155;-75
2022/07/01 21:26:26;;;;;;;;;;;;;;;;;;5042305;28;2728;-76
2022/07/01 21:28:51;;;;;;;;;;;;;;;;;;5027357;28;2778;-76
2022/07/01 21:31:17;;;;;;;;;;;;;;;;;;5044586;28;2735;-76
2022/07/01 21:33:42;;;;;;;;;;;;;;;;;;5027521;28;2254;-76
2022/07/01 21:36:07;;;;;;;;;;;;;;;;;;5028587;28;1592;-76
2022/07/01 21:38:32;;;;;;;;;;;;;;;;;;5042726;28;2745;-76
2022/07/01 21:41:01;;;;;;;;;;;;;;;;;;5045739;28;2154;-76
2022/07/01 21:43:26;;;;;;;;;;;;;;;;;;5029785;28;2854;-76
2022/07/01 21:45:52;;;;;;;;;;;;;;;;;;5048325;28;2927;-76
2022/07/01 21:48:19;;;;;;;;;;;;;;;;;;5042947;28;2473;-76
2022/07/01 21:50:44;;;;;;;;;;;;;;;;;;5054418;28;2788;-76
2022/07/01 21:53:10;;;;;;;;;;;;;;;;;;5047890;28;2225;-76
2022/07/01 21:55:37;;;;;;;;;;;;;;;;;;5046019;28;2125;-76
2022/07/01 21:58:03;;;;;;;;;;;;;;;;;;5046037;28;3002;-76
2022/07/01 22:00:28;;;;;;;;;;;;;;;;;;5044526;28;2043;-76
2022/07/01 22:02:54;;;;;;;;;;;;;;;;;;5032470;28;2627;-76
2022/07/01 22:05:20;;;;;;;;;;;;;;;;;;5044906;28;2913;-75
2022/07/01 22:07:45;;;;;;;;;;;;;;;;;;5046065;28;2229;-76
2022/07/01 22:10:11;;;;;;;;;;;;;;;;;;5043020;28;1989;-75
2022/07/01 22:12:37;;;;;;;;;;;;;;;;;;5030466;28;2864;-76
2022/07/01 22:15:07;;;;;;;;;;;;;;;;;;5043008;28;1975;-76
2022/07/01 22:17:34;;;;;;;;;;;;;;;;;;5043056;28;2815;-76
2022/07/01 22:19:59;;;;;;;;;;;;;;;;;;5048601;28;2992;-75
2022/07/01 22:22:34;;;;;;;;;;;;;;;;;;5041871;28;3048;-75
2022/07/01 22:25:00;;;;;;;;;;;;;;;;;;5042340;28;1981;-75
2022/07/01 22:27:26;;;;;;;;;;;;;;;;;;5043384;28;2905;-76
2022/07/01 22:29:53;;;;;;;;;;;;;;;;;;5044220;28;3015;-76
2022/07/01 22:32:18;;;;;;;;;;;;;;;;;;5043242;28;2529;-76
2022/07/01 22:34:44;;;;;;;;;;;;;;;;;;5044100;28;2647;-76
2022/07/01 22:37:10;;;;;;;;;;;;;;;;;;5037836;28;2559;-76
2022/07/01 22:39:36;;;;;;;;;;;;;;;;;;5043593;28;2650;-75
2022/07/01 22:42:03;;;;;;;;;;;;;;;;;;5039390;28;2696;-76
2022/07/01 22:44:29;;;;;;;;;;;;;;;;;;5039209;28;2262;-75
2022/07/01 22:47:04;;;;;;;;;;;;;;;;;;5042224;28;2789;-75
2022/07/01 22:49:29;;;;;;;;;;;;;;;;;;5025116;28;2106;-76
2022/07/01 22:51:54;;;;;;;;;;;;;;;;;;5044906;28;2787;-76
2022/07/01 22:54:38;;;;;;;;;;;;;;;;;;5041661;28;2117;-76
2022/07/01 22:57:03;;;;;;;;;;;;;;;;;;5045107;28;2726;-76
2022/07/01 22:59:30;;;;;;;;;;;;;;;;;;5029705;28;2165;-76
2022/07/01 23:01:56;;;;;;;;;;;;;;;;;;5041241;28;3071;-75
2022/07/01 23:04:22;;;;;;;;;;;;;;;;;;5043097;28;2286;-75
2022/07/01 23:06:47;;;;;;;;;;;;;;;;;;5042262;28;2759;-75
2022/07/01 23:09:19;;;;;;;;;;;;;;;;;;5042548;28;2525;-76
2022/07/01 23:11:48;;;;;;;;;;;;;;;;;;5038935;28;3034;-76
2022/07/01 23:17:04;;;;;;;;;;;;;;;;;;5038033;28;2567;-75
2022/07/01 23:19:30;;;;;;;;;;;;;;;;;;5044673;28;2791;-76
2022/07/01 23:21:57;;;;;;;;;;;;;;;;;;5041489;28;2241;-76
2022/07/01 23:24:23;;;;;;;;;;;;;;;;;;5042364;28;2051;-76
2022/07/01 23:26:52;;;;;;;;;;;;;;;;;;5041261;28;2853;-76
2022/07/01 23:29:18;;;;;;;;;;;;;;;;;;5042270;28;2440;-76
2022/07/01 23:31:44;;;;;;;;;;;;;;;;;;5041176;28;2693;-76
2022/07/01 23:34:10;;;;;;;;;;;;;;;;;;5042412;28;2624;-75
2022/07/01 23:36:36;;;;;;;;;;;;;;;;;;5037997;28;2437;-75
2022/07/01 23:39:02;;;;;;;;;;;;;;;;;;5042700;28;2011;-76
2022/07/01 23:41:27;;;;;;;;;;;;;;;;;;5037471;28;2709;-75
2022/07/01 23:43:53;;;;;;;;;;;;;;;;;;5039516;28;2019;-76
2022/07/01 23:46:18;;;;;;;;;;;;;;;;;;5037223;28;2801;-75
2022/07/01 23:48:43;;;;;;;;;;;;;;;;;;5042822;28;2327;-75
2022/07/01 23:51:09;;;;;;;;;;;;;;;;;;5043397;28;2329;-76
2022/07/01 23:53:35;;;;;;;;;;;;;;;;;;5045408;28;2317;-76
2022/07/01 23:56:00;;;;;;;;;;;;;;;;;;5048866;28;2652;-75
2022/07/01 23:58:25;;;;;;;;;;;;;;;;;;5037801;28;2903;-76
